createdAt,value
2022-08-24T00:02:26.152Z,58.44
2022-08-24T00:04:55.794Z,58.62
2022-08-24T00:07:28.209Z,57.90
2022-08-24T00:09:57.159Z,58.04
2022-08-24T00:12:27.524Z,57.54
2022-08-24T00:14:57.472Z,56.68
2022-08-24T00:17:26.749Z,57.36
2022-08-24T00:19:56.310Z,57.51
2022-08-24T00:22:29.548Z,57.35
2022-08-24T00:25:00.343Z,57.34
2022-08-24T00:27:31.225Z,57.25
2022-08-24T00:30:01.794Z,56.89
2022-08-24T00:32:30.088Z,56.77
2022-08-24T00:34:59.528Z,56.89
2022-08-24T00:37:29.995Z,56.06
2022-08-24T00:39:59.436Z,56.27
2022-08-24T00:42:27.852Z,56.61
2022-08-24T00:44:56.037Z,56.75
2022-08-24T00:47:34.229Z,57.03
2022-08-24T00:50:11.290Z,55.99
2022-08-24T00:52:47.824Z,56.76
2022-08-24T00:55:24.109Z,57.01
2022-08-24T00:58:02.688Z,56.69
2022-08-24T01:00:48.879Z,57.05
2022-08-24T01:03:20.978Z,56.96
2022-08-24T01:05:52.654Z,56.98
2022-08-24T01:08:27.666Z,57.05
2022-08-24T01:11:02.055Z,57.21
2022-08-24T01:13:36.014Z,57.48
2022-08-24T01:16:10.073Z,57.14
2022-08-24T01:18:53.040Z,56.99
2022-08-24T01:21:27.148Z,56.21
2022-08-24T01:24:00.764Z,56.96
2022-08-24T01:26:36.475Z,57.67
2022-08-24T01:29:11.831Z,57.90
2022-08-24T01:31:43.845Z,57.55
2022-08-24T01:34:15.171Z,57.10
2022-08-24T01:36:48.647Z,56.76
2022-08-24T01:39:24.614Z,57.05
2022-08-24T01:41:55.419Z,57.23
2022-08-24T01:44:27.930Z,56.74
2022-08-24T01:46:58.828Z,56.83
2022-08-24T01:49:32.744Z,56.31
2022-08-24T01:52:07.264Z,56.46
2022-08-24T01:54:40.234Z,56.08
2022-08-24T01:57:16.984Z,56.59
2022-08-24T01:59:48.853Z,56.38
2022-08-24T02:02:23.465Z,56.21
2022-08-24T02:04:53.377Z,55.91
2022-08-24T02:07:25.699Z,55.85
2022-08-24T02:10:00.185Z,56.00
2022-08-24T02:12:31.732Z,55.70
2022-08-24T02:15:03.497Z,55.50
2022-08-24T02:17:33.984Z,54.82
2022-08-24T02:20:05.511Z,55.70
2022-08-24T02:22:35.690Z,55.29
2022-08-24T02:25:07.735Z,55.87
2022-08-24T02:27:41.504Z,55.70
2022-08-24T02:30:13.218Z,55.07
2022-08-24T02:32:43.853Z,54.93
2022-08-24T02:35:13.303Z,54.96
2022-08-24T02:37:44.332Z,55.52
2022-08-24T02:40:20.222Z,55.73
2022-08-24T02:42:53.744Z,55.67
2022-08-24T02:45:24.292Z,55.80
2022-08-24T02:47:56.288Z,55.00
2022-08-24T02:50:29.220Z,54.73
2022-08-24T02:53:00.074Z,55.23
2022-08-24T02:55:33.128Z,55.14
2022-08-24T02:58:01.888Z,55.88
2022-08-24T03:00:31.530Z,55.54
2022-08-24T03:03:00.747Z,55.82
2022-08-24T03:05:30.667Z,55.55
2022-08-24T03:08:01.117Z,55.42
2022-08-24T03:10:35.323Z,55.08
2022-08-24T03:13:08.211Z,55.32
2022-08-24T03:15:39.204Z,55.28
2022-08-24T03:18:11.778Z,55.28
2022-08-24T03:20:47.428Z,55.23
2022-08-24T03:23:17.532Z,55.27
2022-08-24T03:25:48.603Z,55.33
2022-08-24T03:28:17.146Z,55.36
2022-08-24T03:30:48.352Z,54.42
2022-08-24T03:33:19.265Z,54.41
2022-08-24T03:35:47.389Z,54.55
2022-08-24T03:38:18.472Z,55.02
2022-08-24T03:40:48.805Z,55.50
2022-08-24T03:43:32.690Z,55.66
2022-08-24T03:46:05.006Z,55.42
2022-08-24T03:48:35.079Z,55.29
2022-08-24T03:51:03.753Z,55.19
2022-08-24T03:53:36.801Z,55.23
2022-08-24T03:56:14.899Z,55.25
2022-08-24T03:58:47.225Z,55.10
2022-08-24T04:01:19.631Z,55.36
2022-08-24T04:03:52.426Z,55.21
2022-08-24T04:06:27.034Z,54.63
2022-08-24T04:08:58.549Z,54.69
2022-08-24T04:11:32.570Z,54.65
2022-08-24T04:14:02.744Z,54.58
2022-08-24T04:16:36.346Z,53.98
2022-08-24T04:19:17.410Z,54.22
2022-08-24T04:21:46.703Z,55.12
2022-08-24T04:24:17.278Z,56.14
2022-08-24T04:26:50.794Z,55.99
2022-08-24T04:29:25.084Z,55.90
2022-08-24T04:31:55.180Z,55.93
2022-08-24T04:34:26.204Z,54.72
2022-08-24T04:36:58.416Z,55.02
2022-08-24T04:39:34.184Z,55.77
2022-08-24T04:42:26.626Z,55.37
2022-08-24T04:44:59.454Z,55.08
2022-08-24T04:47:32.661Z,55.99
2022-08-24T04:50:04.307Z,55.71
2022-08-24T04:52:34.324Z,56.09
2022-08-24T04:55:04.730Z,56.14
2022-08-24T04:57:40.462Z,56.22
2022-08-24T05:00:12.774Z,55.88
2022-08-24T05:02:46.774Z,55.87
2022-08-24T05:05:18.395Z,55.57
2022-08-24T05:07:48.617Z,55.13
2022-08-24T05:10:16.863Z,55.32
2022-08-24T05:12:49.775Z,55.72
2022-08-24T05:15:21.032Z,55.77
2022-08-24T05:17:51.584Z,55.54
2022-08-24T05:20:22.526Z,55.37
2022-08-24T05:22:55.797Z,55.51
2022-08-24T05:25:24.418Z,55.62
2022-08-24T05:27:56.237Z,55.82
2022-08-24T05:30:24.360Z,55.54
2022-08-24T05:32:54.725Z,55.44
2022-08-24T05:35:26.095Z,55.82
2022-08-24T05:37:57.344Z,55.52
2022-08-24T05:40:34.020Z,55.98
2022-08-24T05:43:06.050Z,56.15
2022-08-24T05:45:34.497Z,56.74
2022-08-24T05:48:04.797Z,56.59
2022-08-24T05:51:01.934Z,56.96
2022-08-24T05:53:36.336Z,57.55
2022-08-24T05:56:06.816Z,57.90
2022-08-24T05:58:40.132Z,58.08
2022-08-24T06:01:10.370Z,57.90
2022-08-24T06:03:40.062Z,58.24
2022-08-24T06:06:14.002Z,58.39
2022-08-24T06:08:47.017Z,57.61
2022-08-24T06:11:30.340Z,57.04
2022-08-24T06:14:07.201Z,57.89
2022-08-24T06:16:44.391Z,57.54
2022-08-24T06:19:16.941Z,57.01
2022-08-24T06:21:48.267Z,57.14
2022-08-24T06:24:19.747Z,57.28
2022-08-24T06:27:09.463Z,57.34
2022-08-24T06:29:40.054Z,57.43
2022-08-24T06:32:28.606Z,57.60
2022-08-24T06:34:58.399Z,57.21
2022-08-24T06:37:29.380Z,57.17
2022-08-24T06:39:59.067Z,56.74
2022-08-24T06:42:29.351Z,56.89
2022-08-24T06:45:01.656Z,55.77
2022-08-24T06:47:30.290Z,56.41
2022-08-24T06:50:06.513Z,56.51
2022-08-24T06:52:39.759Z,56.25
2022-08-24T06:55:11.007Z,55.28
2022-08-24T06:57:39.375Z,55.29
2022-08-24T07:00:11.288Z,55.42
2022-08-24T07:02:42.589Z,55.46
2022-08-24T07:05:12.034Z,54.64
2022-08-24T07:08:01.339Z,54.42
2022-08-24T07:10:31.559Z,53.95
2022-08-24T07:13:02.272Z,53.88
2022-08-24T07:15:33.571Z,54.00
2022-08-24T07:18:15.964Z,54.11
2022-08-24T07:20:51.340Z,54.21
2022-08-24T07:23:42.107Z,54.25
2022-08-24T07:26:21.225Z,54.91
2022-08-24T07:29:00.251Z,54.66
2022-08-24T07:31:35.628Z,54.86
2022-08-24T07:34:14.362Z,54.97
2022-08-24T07:36:45.032Z,54.77
2022-08-24T07:39:14.780Z,54.60
2022-08-24T07:42:10.886Z,55.17
2022-08-24T07:44:38.058Z,55.23
2022-08-24T07:47:34.320Z,55.01
2022-08-24T07:50:01.135Z,54.97
2022-08-24T07:52:33.113Z,54.81
2022-08-24T07:55:06.682Z,55.21
2022-08-24T07:57:47.651Z,54.96
2022-08-24T08:00:21.516Z,54.48
2022-08-24T08:02:59.420Z,54.53
2022-08-24T08:05:29.363Z,54.39
2022-08-24T08:08:00.867Z,54.12
2022-08-24T08:10:31.921Z,53.80
2022-08-24T08:13:01.052Z,53.62
2022-08-24T08:15:30.891Z,53.68
2022-08-24T08:18:09.807Z,53.69
2022-08-24T08:20:43.861Z,53.69
2022-08-24T08:23:34.497Z,53.54
2022-08-24T08:26:15.678Z,53.27
2022-08-24T08:29:01.098Z,53.07
2022-08-24T08:31:34.621Z,52.88
2022-08-24T08:34:07.490Z,52.76
2022-08-24T08:36:40.570Z,52.72
2022-08-24T08:39:13.465Z,52.71
2022-08-24T08:42:14.477Z,53.24
2022-08-24T08:44:54.263Z,53.16
2022-08-24T08:47:53.263Z,52.84
2022-08-24T08:50:35.812Z,52.69
2022-08-24T08:53:42.544Z,52.44
2022-08-24T08:56:23.779Z,52.61
2022-08-24T08:59:04.193Z,52.94
2022-08-24T09:02:10.717Z,52.94
2022-08-24T09:05:16.153Z,52.61
2022-08-24T09:08:00.409Z,52.40
2022-08-24T09:10:46.621Z,52.52
2022-08-24T09:13:39.319Z,52.67
2022-08-24T09:16:33.624Z,52.42
2022-08-24T09:19:25.954Z,52.30
2022-08-24T09:22:15.292Z,52.19
2022-08-24T09:25:24.795Z,51.90
2022-08-24T09:28:43.774Z,52.25
2022-08-24T09:31:37.922Z,51.90
2022-08-24T09:34:20.493Z,51.21
2022-08-24T09:37:17.555Z,51.65
2022-08-24T09:40:03.562Z,51.45
2022-08-24T09:43:13.428Z,50.92
2022-08-24T09:46:13.898Z,51.07
2022-08-24T09:49:15.347Z,50.61
2022-08-24T09:52:11.266Z,50.07
2022-08-24T09:55:14.163Z,50.13
2022-08-24T09:58:03.803Z,50.26
2022-08-24T10:00:41.967Z,50.38
2022-08-24T10:03:40.288Z,49.85
2022-08-24T10:06:29.988Z,49.97
2022-08-24T10:09:25.197Z,50.01
2022-08-24T10:12:06.424Z,49.75
2022-08-24T10:14:52.941Z,50.23
2022-08-24T10:17:35.842Z,49.64
2022-08-24T10:20:24.081Z,49.51
2022-08-24T10:23:22.119Z,49.37
2022-08-24T10:25:58.198Z,49.33
2022-08-24T10:29:00.922Z,48.72
2022-08-24T10:31:43.834Z,49.55
2022-08-24T10:34:32.532Z,49.30
2022-08-24T10:37:42.319Z,49.25
2022-08-24T10:40:35.113Z,49.09
2022-08-24T10:43:35.938Z,48.93
2022-08-24T10:46:39.799Z,49.29
2022-08-24T10:49:52.182Z,49.32
2022-08-24T10:52:48.897Z,48.42
2022-08-24T10:55:22.455Z,48.54
2022-08-24T10:58:08.314Z,47.74
2022-08-24T11:00:37.917Z,48.05
2022-08-24T11:03:11.145Z,48.18
2022-08-24T11:05:43.701Z,48.06
2022-08-24T11:08:21.579Z,48.22
2022-08-24T11:11:09.253Z,46.95
2022-08-24T11:13:38.999Z,47.42
2022-08-24T11:16:07.767Z,47.12
2022-08-24T11:18:49.653Z,47.17
2022-08-24T11:21:34.909Z,46.88
2022-08-24T11:24:07.161Z,46.41
2022-08-24T11:26:53.603Z,46.71
2022-08-24T11:29:23.230Z,46.31
2022-08-24T11:31:52.781Z,46.36
2022-08-24T11:34:33.269Z,46.81
2022-08-24T11:37:01.522Z,46.75
2022-08-24T11:39:36.190Z,46.46
2022-08-24T11:42:29.224Z,46.81
2022-08-24T11:45:08.840Z,46.33
2022-08-24T11:47:49.668Z,46.61
2022-08-24T11:50:30.606Z,46.00
2022-08-24T11:53:12.070Z,45.82
2022-08-24T11:55:57.178Z,45.07
2022-08-24T11:58:39.732Z,45.03
2022-08-24T12:01:18.805Z,44.67
2022-08-24T12:04:02.455Z,44.13
2022-08-24T12:06:44.250Z,43.32
2022-08-24T12:09:25.839Z,43.22
2022-08-24T12:12:03.734Z,42.50
2022-08-24T12:14:38.375Z,42.86
2022-08-24T12:17:16.336Z,42.04
2022-08-24T12:19:50.361Z,42.25
2022-08-24T12:22:21.105Z,41.59
2022-08-24T12:24:54.647Z,41.99
2022-08-24T12:27:26.686Z,41.28
2022-08-24T12:30:00.430Z,41.64
2022-08-24T12:32:37.640Z,42.06
2022-08-24T12:35:10.216Z,41.42
2022-08-24T12:37:44.495Z,41.76
2022-08-24T12:40:22.961Z,42.55
2022-08-24T12:42:56.241Z,42.38
2022-08-24T12:45:26.025Z,41.62
2022-08-24T12:47:59.942Z,40.89
2022-08-24T12:50:33.344Z,39.74
2022-08-24T12:53:32.190Z,39.94
2022-08-24T12:56:24.080Z,39.63
2022-08-24T12:59:00.310Z,39.06
2022-08-24T13:01:35.761Z,37.96
2022-08-24T13:04:09.257Z,38.35
2022-08-24T13:06:42.394Z,38.84
2022-08-24T13:09:15.122Z,38.41
2022-08-24T13:11:43.647Z,39.21
2022-08-24T13:14:22.209Z,39.09
2022-08-24T13:17:12.622Z,39.96
2022-08-24T13:19:45.728Z,39.14
2022-08-24T13:22:32.056Z,39.29
2022-08-24T13:25:02.932Z,39.99
2022-08-24T13:28:04.201Z,40.79
2022-08-24T13:31:05.914Z,41.38
2022-08-24T13:33:46.460Z,41.73
2022-08-24T13:36:51.684Z,41.42
2022-08-24T13:39:56.659Z,41.43
2022-08-24T13:42:55.562Z,42.02
2022-08-24T13:45:34.224Z,41.83
2022-08-24T13:48:30.064Z,41.55
2022-08-24T13:51:37.961Z,41.32
2022-08-24T13:54:29.748Z,41.38
2022-08-24T13:57:11.810Z,40.68
2022-08-24T14:00:01.281Z,40.61
2022-08-24T14:02:46.947Z,41.03
2022-08-24T14:05:31.785Z,39.94
2022-08-24T14:08:15.253Z,39.55
2022-08-24T14:10:57.446Z,39.23
2022-08-24T14:13:41.185Z,38.77
2022-08-24T14:16:49.543Z,39.01
2022-08-24T14:19:25.276Z,38.94
2022-08-24T14:22:10.384Z,38.79
2022-08-24T14:24:49.320Z,39.24
2022-08-24T14:27:38.633Z,39.55
2022-08-24T14:30:45.536Z,39.99
2022-08-24T14:33:22.910Z,39.95
2022-08-24T14:36:19.398Z,40.45
2022-08-24T14:38:59.707Z,41.09
2022-08-24T14:41:49.384Z,41.38
2022-08-24T14:44:43.129Z,42.15
2022-08-24T14:47:26.851Z,42.23
2022-08-24T14:50:14.985Z,42.52
2022-08-24T14:53:19.965Z,42.59
2022-08-24T14:56:01.191Z,43.21
2022-08-24T14:58:42.083Z,43.65
2022-08-24T15:01:40.745Z,44.09
2022-08-24T15:04:30.703Z,44.26
2022-08-24T15:07:28.592Z,44.20
2022-08-24T15:10:01.899Z,44.37
2022-08-24T15:12:44.484Z,43.73
2022-08-24T15:15:24.127Z,44.31
2022-08-24T15:18:09.671Z,44.40
2022-08-24T15:20:57.311Z,44.30
2022-08-24T15:23:37.474Z,44.02
2022-08-24T15:26:13.631Z,44.30
2022-08-24T15:28:55.202Z,44.04
2022-08-24T15:31:26.141Z,42.72
2022-08-24T15:34:00.775Z,41.53
2022-08-24T15:36:33.268Z,40.79
2022-08-24T15:39:05.255Z,40.12
2022-08-24T15:41:37.987Z,39.74
2022-08-24T15:44:20.416Z,39.38
2022-08-24T15:46:56.479Z,38.53
2022-08-24T15:49:29.460Z,38.10
2022-08-24T15:52:02.876Z,38.23
2022-08-24T15:54:40.925Z,38.02
2022-08-24T15:57:27.693Z,38.01
2022-08-24T16:00:09.527Z,37.69
2022-08-24T16:02:39.479Z,37.37
2022-08-24T16:05:22.156Z,37.28
2022-08-24T16:08:14.339Z,37.13
2022-08-24T16:10:44.905Z,36.98
2022-08-24T16:13:26.903Z,36.50
2022-08-24T16:16:06.179Z,36.54
2022-08-24T16:19:08.544Z,37.07
2022-08-24T16:21:58.550Z,37.02
2022-08-24T16:24:38.456Z,37.43
2022-08-24T16:27:11.701Z,37.87
2022-08-24T16:29:56.285Z,38.06
2022-08-24T16:32:53.748Z,37.73
2022-08-24T16:35:26.954Z,38.24
2022-08-24T16:37:57.393Z,38.41
2022-08-24T16:40:31.917Z,38.95
2022-08-24T16:43:05.179Z,38.95
2022-08-24T16:45:36.178Z,39.63
2022-08-24T16:48:07.399Z,39.62
2022-08-24T16:50:38.400Z,40.14
2022-08-24T16:53:07.330Z,40.61
2022-08-24T16:55:39.884Z,40.82
2022-08-24T16:58:08.659Z,40.89
2022-08-24T17:00:39.984Z,41.53
2022-08-24T17:03:15.059Z,41.64
2022-08-24T17:05:51.092Z,42.04
2022-08-24T17:08:24.707Z,42.19
2022-08-24T17:10:56.152Z,42.41
2022-08-24T17:16:18.652Z,42.74
2022-08-24T17:18:49.373Z,42.72
2022-08-24T17:21:18.281Z,42.38
2022-08-24T17:23:49.448Z,42.57
2022-08-24T17:26:21.460Z,42.84
2022-08-24T17:28:54.688Z,43.05
2022-08-24T17:31:24.886Z,43.54
2022-08-24T17:33:54.614Z,43.39
2022-08-24T17:36:25.035Z,43.96
2022-08-24T17:38:56.351Z,44.01
2022-08-24T17:41:26.648Z,43.90
2022-08-24T17:44:02.216Z,44.13
2022-08-24T17:46:31.815Z,43.78
2022-08-24T17:49:06.302Z,44.21
2022-08-24T17:51:41.523Z,44.41
2022-08-24T17:54:10.377Z,44.58
2022-08-24T17:56:42.694Z,44.47
2022-08-24T17:59:26.410Z,44.01
2022-08-24T18:02:02.563Z,44.47
2022-08-24T18:04:43.991Z,44.16
2022-08-24T18:07:22.179Z,44.10
2022-08-24T18:10:15.540Z,44.06
2022-08-24T18:12:44.360Z,44.16
2022-08-24T18:15:35.448Z,44.56
2022-08-24T18:18:09.944Z,44.42
2022-08-24T18:20:43.607Z,44.09
2022-08-24T18:23:15.051Z,44.55
2022-08-24T18:25:53.829Z,44.61
2022-08-24T18:28:24.300Z,44.75
2022-08-24T18:30:55.674Z,45.46
2022-08-24T18:33:27.760Z,45.57
2022-08-24T18:36:04.157Z,45.78
2022-08-24T18:38:35.408Z,45.92
2022-08-24T18:41:04.753Z,46.37
2022-08-24T18:43:35.777Z,46.66
2022-08-24T18:46:07.103Z,46.74
2022-08-24T18:48:38.991Z,47.01
2022-08-24T18:51:10.385Z,46.85
2022-08-24T18:53:40.386Z,47.21
2022-08-24T18:56:12.657Z,47.04
2022-08-24T18:58:47.398Z,46.93
2022-08-24T19:01:18.950Z,46.99
2022-08-24T19:03:47.324Z,47.15
2022-08-24T19:06:23.208Z,46.93
2022-08-24T19:08:53.332Z,47.18
2022-08-24T19:11:26.000Z,47.10
2022-08-24T19:13:54.789Z,47.12
2022-08-24T19:16:31.167Z,46.95
2022-08-24T19:19:01.536Z,47.08
2022-08-24T19:21:41.829Z,47.64
2022-08-24T19:24:13.376Z,47.61
2022-08-24T19:26:43.667Z,47.83
2022-08-24T19:29:12.809Z,48.51
2022-08-24T19:31:43.783Z,48.35
2022-08-24T19:34:14.349Z,48.19
2022-08-24T19:36:47.638Z,48.27
2022-08-24T19:39:18.577Z,48.41
2022-08-24T19:42:06.355Z,48.62
2022-08-24T19:44:57.715Z,48.37
2022-08-24T19:47:28.492Z,48.83
2022-08-24T19:49:58.811Z,48.60
2022-08-24T19:52:34.753Z,48.72
2022-08-24T19:55:06.535Z,48.51
2022-08-24T19:57:44.904Z,48.20
2022-08-24T20:00:31.783Z,48.34
2022-08-24T20:03:08.703Z,47.88
2022-08-24T20:05:37.942Z,48.05
2022-08-24T20:08:11.442Z,48.26
2022-08-24T20:10:42.375Z,47.93
2022-08-24T20:13:13.381Z,47.80
2022-08-24T20:15:44.704Z,47.87
2022-08-24T20:18:17.835Z,47.63
2022-08-24T20:20:58.076Z,47.60
2022-08-24T20:23:31.282Z,47.62
2022-08-24T20:26:03.990Z,47.37
2022-08-24T20:28:40.525Z,47.86
2022-08-24T20:31:10.637Z,47.19
2022-08-24T20:33:39.128Z,47.62
2022-08-24T20:36:08.310Z,47.08
2022-08-24T20:38:37.581Z,46.65
2022-08-24T20:41:06.069Z,47.12
2022-08-24T20:43:34.354Z,46.76
2022-08-24T20:46:02.794Z,46.72
2022-08-24T20:48:35.995Z,46.86
2022-08-24T20:51:05.726Z,46.72
2022-08-24T20:53:33.923Z,46.71
2022-08-24T20:56:10.217Z,46.40
2022-08-24T20:58:39.584Z,45.90
2022-08-24T21:01:08.354Z,46.23
2022-08-24T21:03:36.822Z,45.96
2022-08-24T21:06:05.891Z,45.77
2022-08-24T21:08:34.121Z,45.75
2022-08-24T21:11:03.843Z,46.16
2022-08-24T21:13:32.126Z,45.23
2022-08-24T21:16:00.871Z,45.85
2022-08-24T21:18:29.278Z,45.78
2022-08-24T21:21:03.701Z,46.57
2022-08-24T21:23:33.232Z,46.58
2022-08-24T21:26:04.425Z,46.50
2022-08-24T21:28:33.374Z,46.93
2022-08-24T21:31:05.285Z,46.41
2022-08-24T21:33:51.340Z,46.79
2022-08-24T21:36:20.543Z,46.41
2022-08-24T21:38:48.489Z,46.60
2022-08-24T21:41:17.916Z,46.93
2022-08-24T21:43:46.043Z,46.59
2022-08-24T21:46:14.586Z,46.77
2022-08-24T21:48:42.845Z,46.74
2022-08-24T21:51:11.290Z,46.39
2022-08-24T21:53:39.541Z,46.80
2022-08-24T21:56:08.152Z,46.93
2022-08-24T21:58:37.662Z,47.03
2022-08-24T22:01:05.864Z,47.01
2022-08-24T22:03:39.793Z,46.84
2022-08-24T22:06:09.286Z,46.64
2022-08-24T22:08:38.919Z,47.04
2022-08-24T22:11:12.789Z,46.92
2022-08-24T22:13:47.186Z,46.52
2022-08-24T22:16:15.743Z,46.48
2022-08-24T22:18:44.116Z,46.78
2022-08-24T22:21:18.114Z,47.05
2022-08-24T22:23:48.104Z,46.75
2022-08-24T22:26:17.733Z,46.58
2022-08-24T22:28:48.987Z,46.58
2022-08-24T22:31:21.233Z,46.98
2022-08-24T22:33:51.661Z,46.88
2022-08-24T22:36:20.894Z,46.66
2022-08-24T22:38:50.903Z,46.95
2022-08-24T22:41:22.339Z,46.67
2022-08-24T22:44:11.987Z,46.76
2022-08-24T22:46:41.661Z,46.70
2022-08-24T22:49:11.966Z,46.67
2022-08-24T22:51:40.871Z,46.92
2022-08-24T22:54:13.190Z,46.79
2022-08-24T22:56:48.107Z,47.04
2022-08-24T22:59:23.550Z,46.58
2022-08-24T23:01:57.368Z,46.65
2022-08-24T23:04:32.251Z,46.55
2022-08-24T23:07:04.224Z,46.61
2022-08-24T23:09:36.633Z,46.43
2022-08-24T23:12:23.746Z,46.27
2022-08-24T23:14:55.000Z,46.40
2022-08-24T23:17:36.746Z,46.92
2022-08-24T23:20:09.289Z,46.76
2022-08-24T23:22:43.779Z,46.61
2022-08-24T23:25:15.013Z,46.38
2022-08-24T23:27:46.613Z,46.59
2022-08-24T23:30:22.730Z,46.71
2022-08-24T23:32:52.553Z,46.53
2022-08-24T23:35:21.082Z,46.64
2022-08-24T23:37:49.514Z,46.95
2022-08-24T23:40:20.765Z,46.60
2022-08-24T23:42:50.965Z,46.85
2022-08-24T23:45:28.273Z,46.55
2022-08-24T23:48:00.342Z,47.11
2022-08-24T23:50:33.216Z,46.77
2022-08-24T23:53:04.017Z,46.56
2022-08-24T23:55:33.814Z,46.35
2022-08-24T23:58:04.677Z,46.43
